sensor_id;sensor_type;location;lat;lon;timestamp;temperature;humidity
13268;DHT22;6702;47.068;15.458;2023-05-07T00:01:11;17.60;99.90
13268;DHT22;6702;47.068;15.458;2023-05-07T00:04:14;17.60;99.90
13268;DHT22;6702;47.068;15.458;2023-05-07T00:07:18;17.60;99.90
13268;DHT22;6702;47.068;15.458;2023-05-07T00:10:21;17.70;99.90
13268;DHT22;6702;47.068;15.458;2023-05-07T00:13:26;17.60;99.90
13268;DHT22;6702;47.068;15.458;2023-05-07T00:16:29;17.50;99.90
13268;DHT22;6702;47.068;15.458;2023-05-07T00:19:32;17.50;99.90
13268;DHT22;6702;47.068;15.458;2023-05-07T00:22:35;17.40;99.90
13268;DHT22;6702;47.068;15.458;2023-05-07T00:25:39;17.20;99.90
13268;DHT22;6702;47.068;15.458;2023-05-07T00:28:43;16.90;99.90
13268;DHT22;6702;47.068;15.458;2023-05-07T00:31:48;16.90;99.90
13268;DHT22;6702;47.068;15.458;2023-05-07T00:34:52;16.90;99.90
13268;DHT22;6702;47.068;15.458;2023-05-07T00:37:55;16.90;99.90
13268;DHT22;6702;47.068;15.458;2023-05-07T00:40:58;16.90;99.90
13268;DHT22;6702;47.068;15.458;2023-05-07T00:44:02;16.90;99.90
13268;DHT22;6702;47.068;15.458;2023-05-07T00:47:06;16.90;99.90
13268;DHT22;6702;47.068;15.458;2023-05-07T00:50:09;16.90;99.90
13268;DHT22;6702;47.068;15.458;2023-05-07T00:53:14;16.90;99.90
13268;DHT22;6702;47.068;15.458;2023-05-07T00:56:18;16.90;99.90
13268;DHT22;6702;47.068;15.458;2023-05-07T00:59:23;16.90;99.90
13268;DHT22;6702;47.068;15.458;2023-05-07T01:02:27;17.00;99.90
13268;DHT22;6702;47.068;15.458;2023-05-07T01:05:30;17.00;99.90
13268;DHT22;6702;47.068;15.458;2023-05-07T01:08:34;17.00;99.90
13268;DHT22;6702;47.068;15.458;2023-05-07T01:11:38;17.00;99.90
13268;DHT22;6702;47.068;15.458;2023-05-07T01:14:43;17.00;99.90
13268;DHT22;6702;47.068;15.458;2023-05-07T01:17:46;16.90;99.90
13268;DHT22;6702;47.068;15.458;2023-05-07T01:20:49;16.90;99.90
13268;DHT22;6702;47.068;15.458;2023-05-07T01:23:54;16.80;99.90
13268;DHT22;6702;47.068;15.458;2023-05-07T01:26:58;16.80;99.90
13268;DHT22;6702;47.068;15.458;2023-05-07T01:30:03;16.80;99.90
13268;DHT22;6702;47.068;15.458;2023-05-07T01:33:09;16.70;99.90
13268;DHT22;6702;47.068;15.458;2023-05-07T01:36:14;16.60;99.90
13268;DHT22;6702;47.068;15.458;2023-05-07T01:39:19;16.50;99.90
13268;DHT22;6702;47.068;15.458;2023-05-07T01:42:23;16.40;99.90
13268;DHT22;6702;47.068;15.458;2023-05-07T01:45:26;16.40;99.90
13268;DHT22;6702;47.068;15.458;2023-05-07T01:48:29;16.20;99.90
13268;DHT22;6702;47.068;15.458;2023-05-07T01:51:33;16.10;99.90
13268;DHT22;6702;47.068;15.458;2023-05-07T01:54:38;16.10;99.90
13268;DHT22;6702;47.068;15.458;2023-05-07T01:57:41;16.10;99.90
13268;DHT22;6702;47.068;15.458;2023-05-07T02:00:44;16.00;99.90
13268;DHT22;6702;47.068;15.458;2023-05-07T02:03:47;16.00;99.90
13268;DHT22;6702;47.068;15.458;2023-05-07T02:06:51;16.00;99.90
13268;DHT22;6702;47.068;15.458;2023-05-07T02:09:56;15.90;99.90
13268;DHT22;6702;47.068;15.458;2023-05-07T02:12:59;15.90;99.90
13268;DHT22;6702;47.068;15.458;2023-05-07T02:16:04;16.00;99.90
13268;DHT22;6702;47.068;15.458;2023-05-07T02:19:09;15.90;99.90
13268;DHT22;6702;47.068;15.458;2023-05-07T02:22:12;16.00;99.90
13268;DHT22;6702;47.068;15.458;2023-05-07T02:25:16;15.90;99.90
13268;DHT22;6702;47.068;15.458;2023-05-07T02:28:19;15.90;99.90
13268;DHT22;6702;47.068;15.458;2023-05-07T02:31:23;15.80;99.90
13268;DHT22;6702;47.068;15.458;2023-05-07T02:34:26;15.80;99.90
13268;DHT22;6702;47.068;15.458;2023-05-07T02:37:29;15.70;99.90
13268;DHT22;6702;47.068;15.458;2023-05-07T02:40:33;15.70;99.90
13268;DHT22;6702;47.068;15.458;2023-05-07T02:43:40;15.70;99.90
13268;DHT22;6702;47.068;15.458;2023-05-07T02:46:43;15.70;99.90
13268;DHT22;6702;47.068;15.458;2023-05-07T02:49:46;15.60;99.90
13268;DHT22;6702;47.068;15.458;2023-05-07T02:52:49;15.60;99.90
13268;DHT22;6702;47.068;15.458;2023-05-07T02:56:00;15.50;99.90
13268;DHT22;6702;47.068;15.458;2023-05-07T02:59:03;15.50;99.90
13268;DHT22;6702;47.068;15.458;2023-05-07T03:02:06;15.50;99.90
13268;DHT22;6702;47.068;15.458;2023-05-07T03:05:09;15.50;99.90
13268;DHT22;6702;47.068;15.458;2023-05-07T03:08:13;15.40;99.90
13268;DHT22;6702;47.068;15.458;2023-05-07T03:11:18;15.40;99.90
13268;DHT22;6702;47.068;15.458;2023-05-07T03:14:21;15.40;99.90
13268;DHT22;6702;47.068;15.458;2023-05-07T03:17:24;15.40;99.90
13268;DHT22;6702;47.068;15.458;2023-05-07T03:20:28;15.40;99.90
13268;DHT22;6702;47.068;15.458;2023-05-07T03:23:31;15.30;99.90
13268;DHT22;6702;47.068;15.458;2023-05-07T03:26:36;15.30;99.90
13268;DHT22;6702;47.068;15.458;2023-05-07T03:29:39;15.20;99.90
13268;DHT22;6702;47.068;15.458;2023-05-07T03:32:42;15.20;99.90
13268;DHT22;6702;47.068;15.458;2023-05-07T03:35:45;15.20;99.90
13268;DHT22;6702;47.068;15.458;2023-05-07T03:38:49;15.10;99.90
13268;DHT22;6702;47.068;15.458;2023-05-07T03:41:54;15.10;99.90
13268;DHT22;6702;47.068;15.458;2023-05-07T03:44:57;15.10;99.90
13268;DHT22;6702;47.068;15.458;2023-05-07T03:48:00;15.00;99.90
13268;DHT22;6702;47.068;15.458;2023-05-07T03:51:04;15.00;99.90
13268;DHT22;6702;47.068;15.458;2023-05-07T03:54:07;15.10;99.90
13268;DHT22;6702;47.068;15.458;2023-05-07T03:57:11;15.10;99.90
13268;DHT22;6702;47.068;15.458;2023-05-07T04:00:15;15.10;99.90
13268;DHT22;6702;47.068;15.458;2023-05-07T04:03:18;15.00;99.90
13268;DHT22;6702;47.068;15.458;2023-05-07T04:06:21;15.10;99.90
13268;DHT22;6702;47.068;15.458;2023-05-07T04:09:24;15.10;99.90
13268;DHT22;6702;47.068;15.458;2023-05-07T04:12:29;15.10;99.90
13268;DHT22;6702;47.068;15.458;2023-05-07T04:15:32;15.10;99.90
13268;DHT22;6702;47.068;15.458;2023-05-07T04:18:35;15.10;99.90
13268;DHT22;6702;47.068;15.458;2023-05-07T04:21:39;15.20;99.90
13268;DHT22;6702;47.068;15.458;2023-05-07T04:24:42;15.20;99.90
13268;DHT22;6702;47.068;15.458;2023-05-07T04:27:46;15.30;99.90
13268;DHT22;6702;47.068;15.458;2023-05-07T04:30:50;15.30;99.90
13268;DHT22;6702;47.068;15.458;2023-05-07T04:33:53;15.40;99.90
13268;DHT22;6702;47.068;15.458;2023-05-07T04:36:59;15.40;99.90
13268;DHT22;6702;47.068;15.458;2023-05-07T04:40:02;15.50;99.90
13268;DHT22;6702;47.068;15.458;2023-05-07T04:43:07;15.50;99.90
13268;DHT22;6702;47.068;15.458;2023-05-07T04:46:10;15.50;99.90
13268;DHT22;6702;47.068;15.458;2023-05-07T04:49:14;15.60;99.90
13268;DHT22;6702;47.068;15.458;2023-05-07T04:52:20;15.60;99.90
13268;DHT22;6702;47.068;15.458;2023-05-07T04:55:23;15.70;99.90
13268;DHT22;6702;47.068;15.458;2023-05-07T04:58:27;15.90;99.90
13268;DHT22;6702;47.068;15.458;2023-05-07T05:01:33;16.00;99.90
13268;DHT22;6702;47.068;15.458;2023-05-07T05:04:37;16.10;99.90
13268;DHT22;6702;47.068;15.458;2023-05-07T05:07:40;16.20;99.90
13268;DHT22;6702;47.068;15.458;2023-05-07T05:10:43;16.40;99.90
13268;DHT22;6702;47.068;15.458;2023-05-07T05:13:47;16.40;99.90
13268;DHT22;6702;47.068;15.458;2023-05-07T05:16:51;16.50;99.90
13268;DHT22;6702;47.068;15.458;2023-05-07T05:19:54;16.60;99.90
13268;DHT22;6702;47.068;15.458;2023-05-07T05:22:58;16.70;99.90
13268;DHT22;6702;47.068;15.458;2023-05-07T05:26:01;16.90;99.90
13268;DHT22;6702;47.068;15.458;2023-05-07T05:29:05;16.90;99.90
13268;DHT22;6702;47.068;15.458;2023-05-07T05:32:09;17.10;99.90
13268;DHT22;6702;47.068;15.458;2023-05-07T05:35:12;17.20;99.90
13268;DHT22;6702;47.068;15.458;2023-05-07T05:38:15;17.20;99.90
13268;DHT22;6702;47.068;15.458;2023-05-07T05:41:19;17.20;99.90
13268;DHT22;6702;47.068;15.458;2023-05-07T05:44:23;17.20;99.90
13268;DHT22;6702;47.068;15.458;2023-05-07T05:47:27;17.20;99.90
13268;DHT22;6702;47.068;15.458;2023-05-07T05:50:30;17.20;99.90
13268;DHT22;6702;47.068;15.458;2023-05-07T05:53:33;17.20;99.90
13268;DHT22;6702;47.068;15.458;2023-05-07T05:56:37;17.20;99.90
13268;DHT22;6702;47.068;15.458;2023-05-07T05:59:41;17.30;99.90
13268;DHT22;6702;47.068;15.458;2023-05-07T06:02:45;17.30;99.90
13268;DHT22;6702;47.068;15.458;2023-05-07T06:05:48;17.60;99.90
13268;DHT22;6702;47.068;15.458;2023-05-07T06:08:51;18.40;99.90
13268;DHT22;6702;47.068;15.458;2023-05-07T06:11:55;19.50;99.90
13268;DHT22;6702;47.068;15.458;2023-05-07T06:15:03;20.00;99.90
13268;DHT22;6702;47.068;15.458;2023-05-07T06:18:06;20.20;99.90
13268;DHT22;6702;47.068;15.458;2023-05-07T06:21:10;20.80;99.90
13268;DHT22;6702;47.068;15.458;2023-05-07T06:24:13;22.00;99.80
13268;DHT22;6702;47.068;15.458;2023-05-07T06:27:16;23.10;97.70
13268;DHT22;6702;47.068;15.458;2023-05-07T06:30:20;23.70;95.60
13268;DHT22;6702;47.068;15.458;2023-05-07T06:33:23;24.40;94.30
13268;DHT22;6702;47.068;15.458;2023-05-07T06:36:27;25.20;92.10
13268;DHT22;6702;47.068;15.458;2023-05-07T06:39:33;25.80;90.70
13268;DHT22;6702;47.068;15.458;2023-05-07T06:42:36;26.50;88.60
13268;DHT22;6702;47.068;15.458;2023-05-07T06:45:41;27.50;84.60
13268;DHT22;6702;47.068;15.458;2023-05-07T06:48:44;28.40;79.70
13268;DHT22;6702;47.068;15.458;2023-05-07T06:51:47;28.80;75.40
13268;DHT22;6702;47.068;15.458;2023-05-07T06:54:50;29.50;72.00
13268;DHT22;6702;47.068;15.458;2023-05-07T06:57:54;30.20;68.60
13268;DHT22;6702;47.068;15.458;2023-05-07T07:00:58;30.80;65.30
13268;DHT22;6702;47.068;15.458;2023-05-07T07:04:01;31.00;59.40
13268;DHT22;6702;47.068;15.458;2023-05-07T07:07:05;31.10;57.60
13268;DHT22;6702;47.068;15.458;2023-05-07T07:10:09;31.80;57.00
13268;DHT22;6702;47.068;15.458;2023-05-07T07:13:12;32.10;53.20
13268;DHT22;6702;47.068;15.458;2023-05-07T07:16:17;31.70;54.00
13268;DHT22;6702;47.068;15.458;2023-05-07T07:19:20;31.70;54.00
13268;DHT22;6702;47.068;15.458;2023-05-07T07:22:23;32.70;52.80
13268;DHT22;6702;47.068;15.458;2023-05-07T07:25:26;33.70;50.40
13268;DHT22;6702;47.068;15.458;2023-05-07T07:28:29;34.30;47.70
13268;DHT22;6702;47.068;15.458;2023-05-07T07:31:34;34.20;45.90
13268;DHT22;6702;47.068;15.458;2023-05-07T07:34:37;34.50;45.80
13268;DHT22;6702;47.068;15.458;2023-05-07T07:37:40;34.50;45.60
13268;DHT22;6702;47.068;15.458;2023-05-07T07:40:45;35.10;45.10
13268;DHT22;6702;47.068;15.458;2023-05-07T07:43:48;36.40;42.60
13268;DHT22;6702;47.068;15.458;2023-05-07T07:46:52;36.60;41.30
13268;DHT22;6702;47.068;15.458;2023-05-07T07:49:55;35.50;41.50
13268;DHT22;6702;47.068;15.458;2023-05-07T07:52:58;35.00;41.30
13268;DHT22;6702;47.068;15.458;2023-05-07T07:56:02;34.60;42.70
13268;DHT22;6702;47.068;15.458;2023-05-07T07:59:06;34.90;42.70
13268;DHT22;6702;47.068;15.458;2023-05-07T08:02:11;35.60;42.10
13268;DHT22;6702;47.068;15.458;2023-05-07T08:05:14;36.50;40.30
13268;DHT22;6702;47.068;15.458;2023-05-07T08:08:17;38.20;38.10
13268;DHT22;6702;47.068;15.458;2023-05-07T08:11:21;38.20;36.60
13268;DHT22;6702;47.068;15.458;2023-05-07T08:14:24;37.00;37.50
13268;DHT22;6702;47.068;15.458;2023-05-07T08:17:29;35.80;38.70
13268;DHT22;6702;47.068;15.458;2023-05-07T08:20:32;34.40;40.10
13268;DHT22;6702;47.068;15.458;2023-05-07T08:23:37;33.10;43.00
13268;DHT22;6702;47.068;15.458;2023-05-07T08:26:41;33.40;42.70
13268;DHT22;6702;47.068;15.458;2023-05-07T08:29:44;32.80;43.80
13268;DHT22;6702;47.068;15.458;2023-05-07T08:32:50;32.50;44.50
13268;DHT22;6702;47.068;15.458;2023-05-07T08:35:53;32.40;44.10
13268;DHT22;6702;47.068;15.458;2023-05-07T08:38:56;32.20;45.10
13268;DHT22;6702;47.068;15.458;2023-05-07T08:42:00;32.60;44.60
13268;DHT22;6702;47.068;15.458;2023-05-07T08:45:09;32.10;44.70
13268;DHT22;6702;47.068;15.458;2023-05-07T08:48:16;31.20;46.30
13268;DHT22;6702;47.068;15.458;2023-05-07T08:51:21;30.30;47.60
13268;DHT22;6702;47.068;15.458;2023-05-07T08:54:25;29.50;49.80
13268;DHT22;6702;47.068;15.458;2023-05-07T08:57:28;29.30;49.90
13268;DHT22;6702;47.068;15.458;2023-05-07T09:00:32;29.00;50.60
13268;DHT22;6702;47.068;15.458;2023-05-07T09:03:37;28.80;51.40
13268;DHT22;6702;47.068;15.458;2023-05-07T09:06:41;28.60;52.90
13268;DHT22;6702;47.068;15.458;2023-05-07T09:09:44;28.80;52.70
13268;DHT22;6702;47.068;15.458;2023-05-07T09:12:47;28.90;52.00
13268;DHT22;6702;47.068;15.458;2023-05-07T09:15:51;29.00;51.50
13268;DHT22;6702;47.068;15.458;2023-05-07T09:18:58;28.60;51.80
13268;DHT22;6702;47.068;15.458;2023-05-07T09:22:02;28.10;52.80
13268;DHT22;6702;47.068;15.458;2023-05-07T09:25:07;27.60;54.40
13268;DHT22;6702;47.068;15.458;2023-05-07T09:28:11;27.20;55.30
13268;DHT22;6702;47.068;15.458;2023-05-07T09:31:14;26.90;55.90
13268;DHT22;6702;47.068;15.458;2023-05-07T09:34:23;26.70;56.10
13268;DHT22;6702;47.068;15.458;2023-05-07T09:37:27;26.80;57.00
13268;DHT22;6702;47.068;15.458;2023-05-07T09:40:31;26.90;56.70
13268;DHT22;6702;47.068;15.458;2023-05-07T09:43:34;27.00;56.60
13268;DHT22;6702;47.068;15.458;2023-05-07T09:46:38;26.70;56.90
13268;DHT22;6702;47.068;15.458;2023-05-07T09:49:47;26.40;56.50
13268;DHT22;6702;47.068;15.458;2023-05-07T09:52:53;26.20;57.20
13268;DHT22;6702;47.068;15.458;2023-05-07T09:55:57;26.10;57.70
13268;DHT22;6702;47.068;15.458;2023-05-07T09:59:05;26.00;58.30
13268;DHT22;6702;47.068;15.458;2023-05-07T10:02:10;26.10;58.70
13268;DHT22;6702;47.068;15.458;2023-05-07T10:05:15;26.40;59.10
13268;DHT22;6702;47.068;15.458;2023-05-07T10:08:18;26.10;58.10
13268;DHT22;6702;47.068;15.458;2023-05-07T10:11:22;26.40;58.40
13268;DHT22;6702;47.068;15.458;2023-05-07T10:14:26;26.80;58.10
13268;DHT22;6702;47.068;15.458;2023-05-07T10:17:31;27.20;57.00
13268;DHT22;6702;47.068;15.458;2023-05-07T10:20:36;27.70;55.20
13268;DHT22;6702;47.068;15.458;2023-05-07T10:23:40;27.60;54.00
13268;DHT22;6702;47.068;15.458;2023-05-07T10:26:47;27.50;54.70
13268;DHT22;6702;47.068;15.458;2023-05-07T10:29:59;27.10;55.50
13268;DHT22;6702;47.068;15.458;2023-05-07T10:33:07;27.00;56.00
13268;DHT22;6702;47.068;15.458;2023-05-07T10:36:13;27.00;55.10
13268;DHT22;6702;47.068;15.458;2023-05-07T10:39:16;26.90;54.70
13268;DHT22;6702;47.068;15.458;2023-05-07T10:42:20;27.00;55.40
13268;DHT22;6702;47.068;15.458;2023-05-07T10:45:24;26.80;56.30
13268;DHT22;6702;47.068;15.458;2023-05-07T10:48:27;27.00;56.30
13268;DHT22;6702;47.068;15.458;2023-05-07T10:51:33;26.80;56.30
13268;DHT22;6702;47.068;15.458;2023-05-07T10:54:37;26.40;55.90
13268;DHT22;6702;47.068;15.458;2023-05-07T10:57:40;26.20;55.80
13268;DHT22;6702;47.068;15.458;2023-05-07T11:00:43;25.80;56.50
13268;DHT22;6702;47.068;15.458;2023-05-07T11:04:15;25.80;57.70
13268;DHT22;6702;47.068;15.458;2023-05-07T11:07:29;25.80;58.50
13268;DHT22;6702;47.068;15.458;2023-05-07T11:10:48;25.60;59.10
13268;DHT22;6702;47.068;15.458;2023-05-07T11:13:52;25.70;58.40
13268;DHT22;6702;47.068;15.458;2023-05-07T11:17:02;25.60;58.60
13268;DHT22;6702;47.068;15.458;2023-05-07T11:20:06;25.20;59.10
13268;DHT22;6702;47.068;15.458;2023-05-07T11:26:53;25.30;58.90
13268;DHT22;6702;47.068;15.458;2023-05-07T11:29:56;25.60;58.90
13268;DHT22;6702;47.068;15.458;2023-05-07T11:33:00;25.90;58.80
13268;DHT22;6702;47.068;15.458;2023-05-07T11:36:05;26.00;58.90
13268;DHT22;6702;47.068;15.458;2023-05-07T11:42:38;26.20;61.00
13268;DHT22;6702;47.068;15.458;2023-05-07T11:45:41;26.50;57.60
13268;DHT22;6702;47.068;15.458;2023-05-07T11:48:44;26.60;55.20
13268;DHT22;6702;47.068;15.458;2023-05-07T11:51:47;26.60;54.60
13268;DHT22;6702;47.068;15.458;2023-05-07T11:54:51;26.80;55.00
13268;DHT22;6702;47.068;15.458;2023-05-07T11:57:55;26.80;55.10
13268;DHT22;6702;47.068;15.458;2023-05-07T12:00:58;27.10;55.70
13268;DHT22;6702;47.068;15.458;2023-05-07T12:04:03;27.30;54.00
13268;DHT22;6702;47.068;15.458;2023-05-07T12:07:11;27.10;54.30
13268;DHT22;6702;47.068;15.458;2023-05-07T12:10:15;26.80;54.70
13268;DHT22;6702;47.068;15.458;2023-05-07T12:13:21;26.70;56.40
13268;DHT22;6702;47.068;15.458;2023-05-07T12:16:25;26.20;56.00
13268;DHT22;6702;47.068;15.458;2023-05-07T12:19:29;26.20;56.50
13268;DHT22;6702;47.068;15.458;2023-05-07T12:22:32;26.50;56.40
13268;DHT22;6702;47.068;15.458;2023-05-07T12:25:37;26.50;55.50
13268;DHT22;6702;47.068;15.458;2023-05-07T12:28:42;26.60;55.30
13268;DHT22;6702;47.068;15.458;2023-05-07T12:31:45;26.30;55.00
13268;DHT22;6702;47.068;15.458;2023-05-07T12:34:50;26.40;57.30
13268;DHT22;6702;47.068;15.458;2023-05-07T12:37:57;26.50;55.90
13268;DHT22;6702;47.068;15.458;2023-05-07T12:41:01;26.60;56.30
13268;DHT22;6702;47.068;15.458;2023-05-07T12:44:06;26.50;56.10
13268;DHT22;6702;47.068;15.458;2023-05-07T12:47:09;26.40;57.10
13268;DHT22;6702;47.068;15.458;2023-05-07T12:50:12;26.10;56.60
13268;DHT22;6702;47.068;15.458;2023-05-07T12:53:16;26.10;56.80
13268;DHT22;6702;47.068;15.458;2023-05-07T12:56:19;26.10;59.60
13268;DHT22;6702;47.068;15.458;2023-05-07T12:59:32;25.90;59.10
13268;DHT22;6702;47.068;15.458;2023-05-07T13:02:38;25.90;58.80
13268;DHT22;6702;47.068;15.458;2023-05-07T13:05:41;25.60;61.40
13268;DHT22;6702;47.068;15.458;2023-05-07T13:08:44;25.40;60.70
13268;DHT22;6702;47.068;15.458;2023-05-07T13:11:47;25.10;61.40
13268;DHT22;6702;47.068;15.458;2023-05-07T13:14:52;24.80;63.20
13268;DHT22;6702;47.068;15.458;2023-05-07T13:17:55;24.50;66.70
13268;DHT22;6702;47.068;15.458;2023-05-07T13:20:59;24.20;69.70
13268;DHT22;6702;47.068;15.458;2023-05-07T13:24:03;24.00;71.40
13268;DHT22;6702;47.068;15.458;2023-05-07T13:27:06;23.70;74.00
13268;DHT22;6702;47.068;15.458;2023-05-07T13:30:11;23.40;77.50
13268;DHT22;6702;47.068;15.458;2023-05-07T13:33:17;23.20;80.10
13268;DHT22;6702;47.068;15.458;2023-05-07T13:36:20;22.90;84.80
13268;DHT22;6702;47.068;15.458;2023-05-07T13:39:23;22.70;88.80
13268;DHT22;6702;47.068;15.458;2023-05-07T13:42:26;22.40;90.30
13268;DHT22;6702;47.068;15.458;2023-05-07T13:45:31;22.10;91.50
13268;DHT22;6702;47.068;15.458;2023-05-07T13:48:34;21.70;92.20
13268;DHT22;6702;47.068;15.458;2023-05-07T13:51:37;21.50;93.80
13268;DHT22;6702;47.068;15.458;2023-05-07T13:54:41;21.30;95.20
13268;DHT22;6702;47.068;15.458;2023-05-07T13:57:44;21.20;96.70
13268;DHT22;6702;47.068;15.458;2023-05-07T14:00:49;21.10;97.40
13268;DHT22;6702;47.068;15.458;2023-05-07T14:03:52;21.00;97.60
13268;DHT22;6702;47.068;15.458;2023-05-07T14:06:55;21.00;98.40
13268;DHT22;6702;47.068;15.458;2023-05-07T14:09:58;20.80;99.40
13268;DHT22;6702;47.068;15.458;2023-05-07T14:13:01;20.50;99.90
13268;DHT22;6702;47.068;15.458;2023-05-07T14:16:06;20.30;99.90
13268;DHT22;6702;47.068;15.458;2023-05-07T14:19:09;20.20;99.90
13268;DHT22;6702;47.068;15.458;2023-05-07T14:22:13;20.10;99.90
13268;DHT22;6702;47.068;15.458;2023-05-07T14:25:17;20.10;99.90
13268;DHT22;6702;47.068;15.458;2023-05-07T14:28:21;20.00;99.90
13268;DHT22;6702;47.068;15.458;2023-05-07T14:31:26;20.00;99.90
13268;DHT22;6702;47.068;15.458;2023-05-07T14:34:29;19.90;99.90
13268;DHT22;6702;47.068;15.458;2023-05-07T14:37:32;19.90;99.90
13268;DHT22;6702;47.068;15.458;2023-05-07T14:40:36;19.80;99.90
13268;DHT22;6702;47.068;15.458;2023-05-07T14:43:39;19.80;99.90
13268;DHT22;6702;47.068;15.458;2023-05-07T14:46:43;19.80;99.90
13268;DHT22;6702;47.068;15.458;2023-05-07T14:49:46;19.80;99.90
13268;DHT22;6702;47.068;15.458;2023-05-07T14:52:49;19.90;99.90
13268;DHT22;6702;47.068;15.458;2023-05-07T14:55:53;19.80;99.90
13268;DHT22;6702;47.068;15.458;2023-05-07T14:58:56;19.80;99.90
13268;DHT22;6702;47.068;15.458;2023-05-07T15:02:01;19.80;99.90
13268;DHT22;6702;47.068;15.458;2023-05-07T15:05:08;19.80;99.90
13268;DHT22;6702;47.068;15.458;2023-05-07T15:08:11;19.70;99.90
13268;DHT22;6702;47.068;15.458;2023-05-07T15:11:14;19.70;99.90
13268;DHT22;6702;47.068;15.458;2023-05-07T15:14:18;19.70;99.90
13268;DHT22;6702;47.068;15.458;2023-05-07T15:17:25;19.70;99.90
13268;DHT22;6702;47.068;15.458;2023-05-07T15:20:28;19.70;99.90
13268;DHT22;6702;47.068;15.458;2023-05-07T15:23:31;19.80;99.90
13268;DHT22;6702;47.068;15.458;2023-05-07T15:26:34;19.90;99.90
13268;DHT22;6702;47.068;15.458;2023-05-07T15:29:38;20.00;99.90
13268;DHT22;6702;47.068;15.458;2023-05-07T15:32:42;20.20;99.90
13268;DHT22;6702;47.068;15.458;2023-05-07T15:35:46;20.40;99.90
13268;DHT22;6702;47.068;15.458;2023-05-07T15:38:49;20.50;99.90
13268;DHT22;6702;47.068;15.458;2023-05-07T15:41:52;20.70;99.90
13268;DHT22;6702;47.068;15.458;2023-05-07T15:44:55;20.90;99.90
13268;DHT22;6702;47.068;15.458;2023-05-07T15:47:59;21.10;99.90
13268;DHT22;6702;47.068;15.458;2023-05-07T15:51:03;21.30;99.90
13268;DHT22;6702;47.068;15.458;2023-05-07T15:54:07;21.40;99.90
13268;DHT22;6702;47.068;15.458;2023-05-07T15:57:10;21.40;99.90
13268;DHT22;6702;47.068;15.458;2023-05-07T16:00:14;21.40;99.90
13268;DHT22;6702;47.068;15.458;2023-05-07T16:03:19;21.20;99.90
13268;DHT22;6702;47.068;15.458;2023-05-07T16:06:23;21.20;99.90
13268;DHT22;6702;47.068;15.458;2023-05-07T16:09:26;21.20;99.90
13268;DHT22;6702;47.068;15.458;2023-05-07T16:12:30;21.00;99.90
13268;DHT22;6702;47.068;15.458;2023-05-07T16:15:33;20.90;99.90
13268;DHT22;6702;47.068;15.458;2023-05-07T16:18:38;20.80;99.90
13268;DHT22;6702;47.068;15.458;2023-05-07T16:21:41;20.80;99.90
13268;DHT22;6702;47.068;15.458;2023-05-07T16:24:44;20.80;99.90
13268;DHT22;6702;47.068;15.458;2023-05-07T16:27:47;20.60;99.90
13268;DHT22;6702;47.068;15.458;2023-05-07T16:30:51;20.50;99.90
13268;DHT22;6702;47.068;15.458;2023-05-07T16:33:55;20.40;99.90
13268;DHT22;6702;47.068;15.458;2023-05-07T16:36:58;20.30;99.90
13268;DHT22;6702;47.068;15.458;2023-05-07T16:40:02;20.30;99.90
13268;DHT22;6702;47.068;15.458;2023-05-07T16:43:08;20.30;99.90
13268;DHT22;6702;47.068;15.458;2023-05-07T16:46:12;20.20;99.90
13268;DHT22;6702;47.068;15.458;2023-05-07T16:49:16;20.10;99.90
13268;DHT22;6702;47.068;15.458;2023-05-07T16:52:20;20.00;99.90
13268;DHT22;6702;47.068;15.458;2023-05-07T16:55:23;19.90;99.90
13268;DHT22;6702;47.068;15.458;2023-05-07T16:58:26;19.90;99.90
13268;DHT22;6702;47.068;15.458;2023-05-07T17:01:29;19.80;99.90
13268;DHT22;6702;47.068;15.458;2023-05-07T17:04:34;19.70;99.90
13268;DHT22;6702;47.068;15.458;2023-05-07T17:07:38;19.60;99.90
13268;DHT22;6702;47.068;15.458;2023-05-07T17:10:41;19.40;99.90
13268;DHT22;6702;47.068;15.458;2023-05-07T17:13:44;19.30;99.90
13268;DHT22;6702;47.068;15.458;2023-05-07T17:16:47;19.30;99.90
13268;DHT22;6702;47.068;15.458;2023-05-07T17:19:52;19.20;99.90
13268;DHT22;6702;47.068;15.458;2023-05-07T17:22:55;19.20;99.90
13268;DHT22;6702;47.068;15.458;2023-05-07T17:25:58;19.10;99.90
13268;DHT22;6702;47.068;15.458;2023-05-07T17:29:02;18.80;99.90
13268;DHT22;6702;47.068;15.458;2023-05-07T17:32:05;18.80;99.90
13268;DHT22;6702;47.068;15.458;2023-05-07T17:35:11;18.90;99.90
13268;DHT22;6702;47.068;15.458;2023-05-07T17:38:14;18.90;99.90
13268;DHT22;6702;47.068;15.458;2023-05-07T17:41:17;19.00;99.90
13268;DHT22;6702;47.068;15.458;2023-05-07T17:44:21;18.90;99.90
13268;DHT22;6702;47.068;15.458;2023-05-07T17:47:25;18.80;99.90
13268;DHT22;6702;47.068;15.458;2023-05-07T17:50:30;18.80;99.90
13268;DHT22;6702;47.068;15.458;2023-05-07T17:53:33;18.70;99.90
13268;DHT22;6702;47.068;15.458;2023-05-07T17:56:36;18.70;99.90
13268;DHT22;6702;47.068;15.458;2023-05-07T17:59:40;18.60;99.90
13268;DHT22;6702;47.068;15.458;2023-05-07T18:02:43;18.60;99.90
13268;DHT22;6702;47.068;15.458;2023-05-07T18:05:48;18.50;99.90
13268;DHT22;6702;47.068;15.458;2023-05-07T18:08:51;18.60;99.90
13268;DHT22;6702;47.068;15.458;2023-05-07T18:11:55;18.60;99.90
13268;DHT22;6702;47.068;15.458;2023-05-07T18:14:58;18.60;99.90
13268;DHT22;6702;47.068;15.458;2023-05-07T18:18:01;18.50;99.90
13268;DHT22;6702;47.068;15.458;2023-05-07T18:21:06;18.50;99.90
13268;DHT22;6702;47.068;15.458;2023-05-07T18:24:10;18.50;99.90
13268;DHT22;6702;47.068;15.458;2023-05-07T18:27:14;18.40;99.90
13268;DHT22;6702;47.068;15.458;2023-05-07T18:30:17;18.30;99.90
13268;DHT22;6702;47.068;15.458;2023-05-07T18:33:20;18.30;99.90
13268;DHT22;6702;47.068;15.458;2023-05-07T18:36:26;18.10;99.90
13268;DHT22;6702;47.068;15.458;2023-05-07T18:39:30;17.90;99.90
13268;DHT22;6702;47.068;15.458;2023-05-07T18:42:33;17.80;99.90
13268;DHT22;6702;47.068;15.458;2023-05-07T18:45:38;17.90;99.90
13268;DHT22;6702;47.068;15.458;2023-05-07T18:48:41;17.90;99.90
13268;DHT22;6702;47.068;15.458;2023-05-07T18:51:45;17.90;99.90
13268;DHT22;6702;47.068;15.458;2023-05-07T18:54:49;17.90;99.90
13268;DHT22;6702;47.068;15.458;2023-05-07T18:57:52;17.90;99.90
13268;DHT22;6702;47.068;15.458;2023-05-07T19:00:56;17.90;99.90
13268;DHT22;6702;47.068;15.458;2023-05-07T19:03:59;18.00;99.90
13268;DHT22;6702;47.068;15.458;2023-05-07T19:07:04;17.90;99.90
13268;DHT22;6702;47.068;15.458;2023-05-07T19:10:08;18.00;99.90
13268;DHT22;6702;47.068;15.458;2023-05-07T19:13:12;17.90;99.90
13268;DHT22;6702;47.068;15.458;2023-05-07T19:16:16;17.70;99.90
13268;DHT22;6702;47.068;15.458;2023-05-07T19:19:19;17.70;99.90
13268;DHT22;6702;47.068;15.458;2023-05-07T19:22:24;17.70;99.90
13268;DHT22;6702;47.068;15.458;2023-05-07T19:25:28;17.80;99.90
13268;DHT22;6702;47.068;15.458;2023-05-07T19:28:32;17.70;99.90